createdAt,value
2023-01-22T00:01:14.339Z,23.97
2023-01-22T00:03:45.518Z,20.17
2023-01-22T00:06:15.027Z,21.80
2023-01-22T00:08:43.269Z,23.47
2023-01-22T00:11:12.763Z,25.23
2023-01-22T00:13:40.953Z,19.37
2023-01-22T00:16:09.922Z,21.50
2023-01-22T00:18:37.770Z,22.27
2023-01-22T00:21:05.846Z,20.77
2023-01-22T00:23:34.052Z,16.80
2023-01-22T00:26:02.599Z,20.83
2023-01-22T00:28:32.451Z,20.00
2023-01-22T00:31:00.897Z,22.13
2023-01-22T00:33:29.185Z,19.33
2023-01-22T00:35:57.592Z,19.73
2023-01-22T00:38:25.451Z,18.40
2023-01-22T00:40:53.424Z,15.67
2023-01-22T00:43:21.378Z,16.80
2023-01-22T00:45:50.581Z,17.87
2023-01-22T00:48:18.506Z,21.43
2023-01-22T00:50:46.550Z,17.73
2023-01-22T00:53:14.468Z,19.07
2023-01-22T00:55:51.026Z,16.17
2023-01-22T00:58:19.020Z,18.80
2023-01-22T01:00:47.287Z,17.03
2023-01-22T01:03:30.527Z,19.73
2023-01-22T01:06:00.437Z,19.03
2023-01-22T01:08:30.336Z,19.33
2023-01-22T01:10:59.385Z,16.93
2023-01-22T01:13:27.996Z,21.27
2023-01-22T01:16:01.339Z,19.90
2023-01-22T01:18:31.791Z,20.40
2023-01-22T01:21:00.730Z,20.87
2023-01-22T01:23:29.753Z,18.60
2023-01-22T01:25:57.988Z,21.63
2023-01-22T01:28:28.796Z,25.60
2023-01-22T01:30:56.762Z,19.40
2023-01-22T01:33:25.240Z,17.27
2023-01-22T01:36:02.059Z,18.73
2023-01-22T01:38:30.453Z,20.27
2023-01-22T01:40:58.944Z,19.83
2023-01-22T01:43:29.195Z,19.70
2023-01-22T01:45:58.870Z,19.67
2023-01-22T01:48:32.359Z,19.77
2023-01-22T01:51:07.884Z,19.87
2023-01-22T01:53:36.610Z,17.97
2023-01-22T01:56:09.529Z,18.83
2023-01-22T01:58:40.362Z,19.40
2023-01-22T02:01:12.014Z,20.53
2023-01-22T02:03:41.231Z,17.50
2023-01-22T02:06:13.307Z,20.30
2023-01-22T02:08:43.553Z,17.53
2023-01-22T02:11:12.175Z,17.73
2023-01-22T02:13:46.526Z,19.40
2023-01-22T02:16:14.975Z,19.20
2023-01-22T02:18:42.922Z,17.80
2023-01-22T02:21:33.927Z,19.33
2023-01-22T02:24:02.138Z,16.67
2023-01-22T02:26:30.413Z,19.40
2023-01-22T02:28:58.753Z,20.87
2023-01-22T02:31:26.715Z,20.70
2023-01-22T02:33:54.906Z,19.93
2023-01-22T02:36:22.969Z,18.37
2023-01-22T02:38:52.203Z,22.33
2023-01-22T02:41:20.244Z,19.90
2023-01-22T02:43:48.068Z,18.27
2023-01-22T02:46:16.378Z,22.10
2023-01-22T02:48:44.259Z,23.47
2023-01-22T02:51:12.336Z,22.73
2023-01-22T02:53:42.209Z,19.07
2023-01-22T02:56:12.217Z,18.47
2023-01-22T02:58:40.169Z,20.57
2023-01-22T03:01:18.984Z,20.67
2023-01-22T03:03:47.519Z,19.10
2023-01-22T03:06:16.071Z,19.87
2023-01-22T03:08:44.753Z,20.87
2023-01-22T03:11:14.302Z,19.77
2023-01-22T03:13:59.754Z,20.07
2023-01-22T03:16:47.426Z,20.20
2023-01-22T03:19:32.702Z,18.67
2023-01-22T03:22:00.601Z,17.77
2023-01-22T03:24:28.654Z,21.90
2023-01-22T03:26:58.012Z,20.93
2023-01-22T03:29:26.226Z,16.23
2023-01-22T03:31:54.140Z,18.57
2023-01-22T03:34:26.086Z,20.17
2023-01-22T03:36:54.214Z,18.27
2023-01-22T03:39:22.401Z,19.67
2023-01-22T03:41:50.316Z,21.63
2023-01-22T03:44:19.631Z,22.50
2023-01-22T03:46:47.664Z,22.63
2023-01-22T03:49:16.289Z,16.47
2023-01-22T03:51:45.153Z,19.43
2023-01-22T03:54:14.183Z,20.97
2023-01-22T03:56:42.530Z,19.33
2023-01-22T03:59:11.371Z,19.10
2023-01-22T04:01:40.581Z,20.50
2023-01-22T04:04:08.616Z,19.60
2023-01-22T04:06:36.567Z,19.00
2023-01-22T04:09:04.824Z,18.57
2023-01-22T04:11:32.676Z,16.30
2023-01-22T04:14:00.791Z,19.00
2023-01-22T04:16:28.749Z,17.53
2023-01-22T04:18:58.124Z,18.40
2023-01-22T04:21:26.200Z,21.10
2023-01-22T04:23:54.321Z,21.30
2023-01-22T04:26:24.606Z,19.17
2023-01-22T04:28:52.610Z,17.37
2023-01-22T04:31:20.568Z,18.20
2023-01-22T04:33:48.580Z,19.17
2023-01-22T04:36:18.067Z,19.33
2023-01-22T04:38:46.176Z,18.17
2023-01-22T04:41:14.066Z,18.80
2023-01-22T04:43:41.958Z,17.73
2023-01-22T04:46:09.822Z,19.20
2023-01-22T04:48:37.836Z,17.80
2023-01-22T04:51:05.979Z,22.07
2023-01-22T04:53:35.344Z,19.40
2023-01-22T04:56:03.261Z,19.37
2023-01-22T04:58:31.248Z,19.27
2023-01-22T05:00:59.231Z,16.93
2023-01-22T05:03:27.067Z,16.47
2023-01-22T05:05:54.935Z,17.03
2023-01-22T05:08:22.803Z,18.63
2023-01-22T05:10:51.975Z,17.07
2023-01-22T05:13:19.947Z,17.97
2023-01-22T05:15:47.780Z,18.60
2023-01-22T05:18:15.645Z,19.67
2023-01-22T05:20:43.551Z,17.65
2023-01-22T05:23:11.419Z,17.20
2023-01-22T05:25:39.529Z,17.43
2023-01-22T05:28:08.779Z,16.67
2023-01-22T05:30:36.782Z,16.77
2023-01-22T05:33:04.834Z,16.73
2023-01-22T05:35:32.791Z,17.43
2023-01-22T05:38:00.611Z,15.17
2023-01-22T05:40:28.521Z,16.40
2023-01-22T05:42:56.873Z,18.10
2023-01-22T05:45:26.207Z,14.30
2023-01-22T05:47:54.453Z,18.37
2023-01-22T05:50:22.758Z,15.77
2023-01-22T05:52:55.496Z,19.77
2023-01-22T05:55:24.067Z,16.53
2023-01-22T05:57:52.101Z,14.63
2023-01-22T06:00:20.787Z,14.93
2023-01-22T06:02:50.135Z,14.63
2023-01-22T06:05:19.065Z,13.77
2023-01-22T06:07:47.040Z,15.07
2023-01-22T06:10:14.907Z,13.70
2023-01-22T06:12:42.808Z,15.73
2023-01-22T06:15:11.930Z,11.90
2023-01-22T06:17:39.799Z,15.00
2023-01-22T06:20:11.563Z,14.13
2023-01-22T06:22:39.473Z,13.27
2023-01-22T06:25:09.330Z,12.03
2023-01-22T06:27:37.240Z,14.10
2023-01-22T06:30:05.827Z,12.87
2023-01-22T06:32:33.733Z,12.50
2023-01-22T06:35:01.688Z,11.93
2023-01-22T06:37:30.910Z,12.43
2023-01-22T06:39:58.795Z,11.80
2023-01-22T06:42:26.745Z,12.50
2023-01-22T06:44:54.612Z,13.50
2023-01-22T06:47:22.502Z,14.43
2023-01-22T06:49:50.566Z,13.63
2023-01-22T06:52:18.393Z,13.23
2023-01-22T06:54:47.644Z,12.50
2023-01-22T06:57:15.543Z,13.20
2023-01-22T06:59:43.472Z,11.23
2023-01-22T07:02:18.912Z,11.57
2023-01-22T07:04:47.009Z,13.07
2023-01-22T07:07:15.227Z,12.17
2023-01-22T07:09:43.119Z,13.03
2023-01-22T07:12:12.387Z,12.53
2023-01-22T07:14:40.282Z,15.50
2023-01-22T07:17:08.225Z,13.77
2023-01-22T07:19:36.155Z,17.07
2023-01-22T07:22:03.991Z,12.73
2023-01-22T07:24:31.860Z,13.73
2023-01-22T07:26:59.807Z,13.60
2023-01-22T07:29:29.082Z,14.77
2023-01-22T07:31:57.016Z,12.53
2023-01-22T07:34:24.938Z,15.23
2023-01-22T07:36:52.843Z,14.53
2023-01-22T07:39:20.742Z,13.63
2023-01-22T07:41:48.769Z,11.87
2023-01-22T07:44:16.742Z,14.00
2023-01-22T07:46:46.092Z,12.70
2023-01-22T07:49:15.195Z,13.07
2023-01-22T07:51:43.026Z,13.17
2023-01-22T07:54:10.889Z,14.17
2023-01-22T07:56:40.342Z,12.83
2023-01-22T07:59:08.288Z,14.53
2023-01-22T08:01:36.267Z,14.13
2023-01-22T08:04:05.801Z,14.50
2023-01-22T08:06:33.847Z,15.33
2023-01-22T08:09:01.728Z,13.13
2023-01-22T08:11:29.721Z,14.30
2023-01-22T08:13:57.623Z,15.38
2023-01-22T08:16:25.737Z,12.60
2023-01-22T08:18:53.670Z,15.10
2023-01-22T08:21:22.935Z,13.33
2023-01-22T08:23:50.830Z,11.90
2023-01-22T08:26:18.790Z,14.53
2023-01-22T08:28:46.742Z,12.17
2023-01-22T08:31:27.088Z,16.37
2023-01-22T08:33:56.164Z,14.03
2023-01-22T08:36:25.624Z,13.03
2023-01-22T08:38:53.742Z,13.83
2023-01-22T08:41:21.865Z,13.83
2023-01-22T08:43:49.825Z,16.00
2023-01-22T08:46:17.671Z,13.67
2023-01-22T08:48:45.616Z,14.77
2023-01-22T08:51:14.122Z,13.03
2023-01-22T08:53:43.405Z,13.23
2023-01-22T08:56:11.277Z,14.73
2023-01-22T08:58:39.228Z,12.10
2023-01-22T09:01:07.168Z,12.60
2023-01-22T09:03:35.198Z,13.00
2023-01-22T09:06:03.074Z,13.47
2023-01-22T09:08:30.945Z,14.87
2023-01-22T09:11:00.204Z,11.93
2023-01-22T09:13:28.060Z,12.47
2023-01-22T09:15:58.576Z,13.00
2023-01-22T09:18:27.162Z,14.77
2023-01-22T09:20:55.121Z,12.00
2023-01-22T09:23:23.683Z,12.00
2023-01-22T09:25:51.561Z,12.50
2023-01-22T09:28:20.885Z,13.10
2023-01-22T09:30:48.868Z,14.67
2023-01-22T09:33:16.833Z,12.13
2023-01-22T09:35:44.962Z,12.77
2023-01-22T09:38:15.611Z,11.87
2023-01-22T09:40:46.615Z,10.77
2023-01-22T09:43:29.606Z,10.33
2023-01-22T09:46:01.604Z,11.30
2023-01-22T09:48:35.835Z,11.50
2023-01-22T09:51:04.377Z,10.50
2023-01-22T09:53:32.909Z,16.47
2023-01-22T09:56:01.370Z,11.30
2023-01-22T09:58:30.616Z,10.73
2023-01-22T10:01:02.666Z,12.63
2023-01-22T10:03:34.201Z,12.90
2023-01-22T10:06:06.149Z,12.13
2023-01-22T10:08:39.903Z,11.47
2023-01-22T10:11:10.909Z,11.23
2023-01-22T10:13:40.788Z,11.60
2023-01-22T10:16:09.000Z,12.27
2023-01-22T10:18:42.074Z,11.83
2023-01-22T10:21:18.629Z,12.53
2023-01-22T10:23:48.188Z,11.77
2023-01-22T10:26:19.621Z,10.63
2023-01-22T10:28:51.463Z,13.03
2023-01-22T10:31:30.345Z,12.67
2023-01-22T10:34:00.312Z,10.20
2023-01-22T10:36:28.903Z,12.40
2023-01-22T10:39:09.965Z,11.07
2023-01-22T10:41:37.908Z,10.77
2023-01-22T10:44:14.321Z,12.30
2023-01-22T10:46:42.376Z,11.53
2023-01-22T10:49:17.299Z,11.23
2023-01-22T10:51:50.247Z,10.10
2023-01-22T10:54:22.727Z,10.87
2023-01-22T10:56:51.939Z,9.93
2023-01-22T10:59:23.974Z,11.13
2023-01-22T11:01:59.377Z,10.37
2023-01-22T11:04:29.009Z,9.30
2023-01-22T11:07:01.028Z,8.87
2023-01-22T11:09:37.036Z,9.77
2023-01-22T11:12:13.409Z,10.60
2023-01-22T11:14:43.617Z,10.70
2023-01-22T11:17:18.574Z,9.07
2023-01-22T11:19:58.098Z,10.83
2023-01-22T11:22:29.832Z,10.40
2023-01-22T11:24:57.686Z,10.47
2023-01-22T11:27:51.551Z,9.30
2023-01-22T11:30:57.022Z,10.57
2023-01-22T11:33:47.098Z,12.67
2023-01-22T11:36:20.910Z,10.77
2023-01-22T11:38:53.253Z,10.83
2023-01-22T11:41:35.745Z,13.03
2023-01-22T11:44:21.643Z,11.80
2023-01-22T11:47:03.019Z,11.40
2023-01-22T11:49:39.944Z,9.80
2023-01-22T11:52:20.841Z,11.23
2023-01-22T11:55:02.168Z,9.43
2023-01-22T11:57:34.466Z,10.50
2023-01-22T12:00:29.459Z,9.80
2023-01-22T12:03:31.001Z,10.87
2023-01-22T12:06:13.450Z,8.50
2023-01-22T12:08:52.074Z,7.27
2023-01-22T12:11:36.336Z,6.27
2023-01-22T12:14:40.362Z,6.17
2023-01-22T12:17:18.556Z,5.67
2023-01-22T12:20:23.956Z,5.77
2023-01-22T12:22:58.328Z,5.23
2023-01-22T12:25:35.262Z,6.10
2023-01-22T12:28:09.825Z,6.73
2023-01-22T12:30:45.904Z,6.20
2023-01-22T12:33:17.736Z,7.70
2023-01-22T12:35:46.442Z,7.13
2023-01-22T12:38:23.923Z,6.93
2023-01-22T12:41:16.210Z,7.03
2023-01-22T12:43:51.698Z,6.93
2023-01-22T12:46:29.726Z,6.20
2023-01-22T12:49:05.777Z,5.40
2023-01-22T12:51:39.762Z,6.87
2023-01-22T12:54:20.270Z,6.20
2023-01-22T12:56:48.785Z,6.80
2023-01-22T12:59:33.898Z,7.50
2023-01-22T13:02:04.467Z,7.50
2023-01-22T13:04:33.998Z,12.37
2023-01-22T13:07:07.398Z,12.03
2023-01-22T13:09:38.601Z,11.97
2023-01-22T13:12:11.784Z,14.03
2023-01-22T13:14:43.107Z,12.23
2023-01-22T13:17:20.878Z,15.10
2023-01-22T13:19:51.287Z,12.57
2023-01-22T13:22:22.631Z,13.07
2023-01-22T13:24:54.103Z,11.80
2023-01-22T13:27:28.070Z,13.10
2023-01-22T13:30:08.115Z,12.93
2023-01-22T13:32:35.989Z,12.43
2023-01-22T13:35:04.964Z,13.63
2023-01-22T13:37:35.608Z,13.13
2023-01-22T13:40:15.138Z,13.63
2023-01-22T13:42:47.267Z,13.63
2023-01-22T13:45:19.305Z,13.10
2023-01-22T13:47:47.440Z,12.97
2023-01-22T13:50:22.769Z,13.80
2023-01-22T13:52:51.378Z,11.03
2023-01-22T13:55:23.193Z,14.53
2023-01-22T13:57:53.481Z,14.63
2023-01-22T14:00:27.675Z,12.80
2023-01-22T14:02:56.079Z,11.50
2023-01-22T14:05:25.873Z,9.60
2023-01-22T14:08:05.784Z,8.67
2023-01-22T14:10:35.113Z,6.07
2023-01-22T14:13:04.887Z,6.00
2023-01-22T14:15:33.490Z,5.67
2023-01-22T14:18:09.779Z,6.57
2023-01-22T14:20:40.510Z,6.47
2023-01-22T14:23:08.515Z,6.33
2023-01-22T14:25:39.508Z,5.87
2023-01-22T14:28:08.930Z,5.47
2023-01-22T14:30:37.347Z,5.73
2023-01-22T14:33:06.016Z,6.10
2023-01-22T14:35:34.187Z,5.70
2023-01-22T14:38:02.209Z,6.73
2023-01-22T14:40:30.998Z,6.20
2023-01-22T14:43:02.724Z,5.33
2023-01-22T14:45:33.431Z,5.37
2023-01-22T14:48:03.965Z,6.80
2023-01-22T14:50:32.261Z,6.70
2023-01-22T14:53:00.270Z,7.23
2023-01-22T14:55:28.857Z,6.90
2023-01-22T14:57:57.623Z,6.60
2023-01-22T15:00:30.254Z,6.73
2023-01-22T15:02:59.422Z,6.43
2023-01-22T15:05:27.842Z,8.60
2023-01-22T15:07:55.823Z,8.27
2023-01-22T15:10:24.302Z,7.30
2023-01-22T15:12:53.916Z,7.23
2023-01-22T15:15:26.326Z,7.03
2023-01-22T15:17:56.996Z,6.90
2023-01-22T15:20:25.342Z,8.63
2023-01-22T15:22:53.282Z,6.87
2023-01-22T15:25:21.234Z,6.13
2023-01-22T15:27:49.204Z,8.20
2023-01-22T15:30:17.728Z,7.07
2023-01-22T15:32:45.751Z,6.83
2023-01-22T15:35:15.530Z,8.43
2023-01-22T15:37:44.155Z,6.97
2023-01-22T15:40:13.673Z,8.40
2023-01-22T15:42:41.626Z,7.23
2023-01-22T15:45:11.221Z,8.00
2023-01-22T15:47:39.148Z,7.73
2023-01-22T15:50:07.862Z,7.60
2023-01-22T15:52:37.096Z,8.13
2023-01-22T15:55:05.668Z,9.43
2023-01-22T15:57:33.631Z,8.20
2023-01-22T16:00:01.549Z,7.93
2023-01-22T16:02:29.379Z,8.50
2023-01-22T16:04:57.213Z,8.43
2023-01-22T16:07:25.147Z,9.73
2023-01-22T16:09:54.417Z,9.07
2023-01-22T16:12:22.355Z,11.50
2023-01-22T16:14:50.219Z,9.50
2023-01-22T16:17:18.108Z,9.53
2023-01-22T16:19:46.024Z,8.30
2023-01-22T16:22:13.887Z,12.47
2023-01-22T16:24:41.773Z,9.13
2023-01-22T16:27:11.158Z,9.60
2023-01-22T16:29:40.031Z,11.93
2023-01-22T16:32:08.122Z,13.57
2023-01-22T16:34:36.272Z,11.13
2023-01-22T16:37:04.185Z,9.63
2023-01-22T16:39:33.931Z,11.23
2023-01-22T16:42:01.935Z,10.70
2023-01-22T16:44:33.524Z,10.77
2023-01-22T16:47:01.968Z,10.07
2023-01-22T16:49:31.728Z,12.03
2023-01-22T16:52:16.544Z,10.00
2023-01-22T16:54:49.375Z,12.13
2023-01-22T16:57:18.093Z,13.83
2023-01-22T16:59:47.476Z,10.70
2023-01-22T17:02:16.725Z,12.87
2023-01-22T17:04:45.557Z,9.80
2023-01-22T17:07:23.966Z,13.73
2023-01-22T17:09:59.904Z,11.63
2023-01-22T17:12:27.941Z,11.67
2023-01-22T17:14:57.256Z,11.73
2023-01-22T17:17:25.286Z,12.50
2023-01-22T17:19:53.156Z,10.90
2023-01-22T17:22:21.123Z,10.90
2023-01-22T17:24:49.586Z,10.63
2023-01-22T17:27:18.532Z,11.93
2023-01-22T17:29:47.032Z,9.30
2023-01-22T17:32:16.350Z,13.27
2023-01-22T17:34:44.400Z,15.07
2023-01-22T17:37:13.596Z,10.10
2023-01-22T17:39:45.735Z,9.63
2023-01-22T17:42:13.706Z,11.87
2023-01-22T17:44:41.632Z,13.70
2023-01-22T17:47:09.749Z,12.73
2023-01-22T17:49:39.071Z,11.97
2023-01-22T17:52:09.107Z,12.77
2023-01-22T17:54:37.200Z,11.30
2023-01-22T17:57:06.236Z,10.17
2023-01-22T17:59:34.949Z,13.87
2023-01-22T18:02:02.999Z,12.33
2023-01-22T18:04:33.429Z,12.63
2023-01-22T18:07:02.911Z,10.73
2023-01-22T18:09:31.203Z,14.27
2023-01-22T18:12:00.401Z,13.20
2023-01-22T18:14:33.829Z,11.90
2023-01-22T18:17:02.771Z,12.37
2023-01-22T18:19:30.712Z,16.00
2023-01-22T18:21:59.030Z,12.03
2023-01-22T18:24:31.176Z,12.23
2023-01-22T18:26:59.196Z,11.37
2023-01-22T18:29:27.620Z,13.57
2023-01-22T18:31:55.716Z,10.83
2023-01-22T18:34:23.827Z,13.90
2023-01-22T18:36:51.777Z,13.30
2023-01-22T18:39:21.152Z,13.37
2023-01-22T18:41:52.787Z,11.47
2023-01-22T18:44:22.598Z,12.40
2023-01-22T18:46:52.355Z,13.23
2023-01-22T18:49:20.683Z,13.70
2023-01-22T18:51:48.801Z,14.83
2023-01-22T18:54:17.393Z,14.40
2023-01-22T18:56:45.552Z,13.33
2023-01-22T18:59:14.840Z,12.80
2023-01-22T19:01:50.000Z,15.07
2023-01-22T19:04:20.709Z,12.70
2023-01-22T19:06:51.995Z,14.70
2023-01-22T19:09:20.630Z,12.00
2023-01-22T19:11:52.166Z,14.20
2023-01-22T19:14:22.403Z,14.17
2023-01-22T19:16:53.084Z,15.40
2023-01-22T19:19:21.832Z,12.77
2023-01-22T19:21:53.288Z,13.03
2023-01-22T19:24:24.982Z,14.37
2023-01-22T19:26:54.746Z,13.20
2023-01-22T19:29:25.481Z,13.10
2023-01-22T19:31:57.871Z,13.97
2023-01-22T19:34:28.669Z,16.70
2023-01-22T19:37:01.170Z,16.30
2023-01-22T19:39:29.421Z,14.93
2023-01-22T19:42:01.635Z,13.53
2023-01-22T19:44:31.844Z,13.53
2023-01-22T19:47:00.720Z,13.83
2023-01-22T19:49:29.847Z,14.80
2023-01-22T19:51:58.047Z,13.97
2023-01-22T19:54:26.061Z,14.27
2023-01-22T19:56:54.365Z,13.77
2023-01-22T19:59:23.855Z,12.00
2023-01-22T20:01:53.451Z,14.07
2023-01-22T20:04:25.012Z,14.67
2023-01-22T20:06:57.465Z,12.83
2023-01-22T20:09:25.826Z,13.87
2023-01-22T20:11:55.419Z,14.73
2023-01-22T20:14:24.356Z,15.87
2023-01-22T20:16:54.206Z,14.03
2023-01-22T20:19:22.404Z,13.40
2023-01-22T20:21:50.314Z,13.47
2023-01-22T20:24:18.247Z,16.60
2023-01-22T20:26:46.390Z,16.10
2023-01-22T20:29:14.597Z,14.00
2023-01-22T20:31:42.882Z,12.57
2023-01-22T20:34:12.181Z,13.90
2023-01-22T20:36:40.146Z,13.03
2023-01-22T20:39:08.122Z,11.23
2023-01-22T20:41:36.179Z,15.03
2023-01-22T20:44:04.943Z,12.57
2023-01-22T20:46:33.979Z,13.97
2023-01-22T20:49:01.846Z,15.57
2023-01-22T20:51:32.138Z,12.27
2023-01-22T20:54:00.143Z,12.33
2023-01-22T20:56:32.577Z,13.63
2023-01-22T20:59:02.182Z,11.27
2023-01-22T21:01:30.740Z,12.40
2023-01-22T21:03:59.707Z,13.93
2023-01-22T21:06:29.588Z,13.23
2023-01-22T21:09:00.966Z,11.53
2023-01-22T21:11:30.929Z,14.03
2023-01-22T21:14:00.574Z,14.97
2023-01-22T21:16:30.452Z,14.37
2023-01-22T21:19:00.311Z,13.13
2023-01-22T21:21:28.933Z,12.70
2023-01-22T21:23:58.394Z,14.30
2023-01-22T21:26:29.835Z,12.40
2023-01-22T21:28:59.828Z,12.80
2023-01-22T21:31:28.834Z,13.57
2023-01-22T21:34:03.202Z,13.23
2023-01-22T21:36:32.130Z,14.23
2023-01-22T21:39:01.959Z,12.03
2023-01-22T21:41:29.970Z,15.70
2023-01-22T21:44:15.734Z,15.60
2023-01-22T21:46:45.445Z,12.23
2023-01-22T21:49:18.486Z,12.30
2023-01-22T21:51:48.051Z,13.30
2023-01-22T21:54:19.625Z,11.57
2023-01-22T21:56:48.008Z,18.60
2023-01-22T21:59:15.955Z,18.13
2023-01-22T22:01:44.892Z,22.50
2023-01-22T22:04:14.969Z,20.47
2023-01-22T22:06:43.382Z,20.47
2023-01-22T22:09:13.837Z,18.37
2023-01-22T22:11:43.599Z,19.23
2023-01-22T22:14:12.872Z,21.80
2023-01-22T22:16:40.804Z,24.67
2023-01-22T22:19:08.923Z,22.40
2023-01-22T22:21:37.318Z,23.87
2023-01-22T22:24:05.905Z,26.07
2023-01-22T22:26:34.160Z,21.70
2023-01-22T22:29:04.931Z,20.77
2023-01-22T22:31:33.001Z,23.07
2023-01-22T22:34:01.032Z,21.67
2023-01-22T22:36:32.668Z,22.60
2023-01-22T22:39:01.810Z,21.43
2023-01-22T22:41:33.114Z,26.23
2023-01-22T22:44:01.210Z,24.60
2023-01-22T22:46:32.433Z,22.10
2023-01-22T22:49:02.117Z,24.17
2023-01-22T22:51:32.371Z,24.77
2023-01-22T22:54:04.317Z,21.33
2023-01-22T22:56:32.812Z,22.40
2023-01-22T22:59:02.434Z,28.10
2023-01-22T23:01:33.145Z,20.97
2023-01-22T23:04:01.723Z,25.17
2023-01-22T23:06:33.031Z,26.13
2023-01-22T23:09:01.798Z,22.77
2023-01-22T23:11:32.105Z,24.17
2023-01-22T23:14:02.730Z,21.07
2023-01-22T23:16:34.265Z,26.50
2023-01-22T23:19:06.166Z,22.30
2023-01-22T23:21:35.271Z,21.87
2023-01-22T23:24:04.188Z,24.87
2023-01-22T23:26:32.512Z,26.37
2023-01-22T23:29:02.436Z,20.77
2023-01-22T23:31:34.295Z,26.80
2023-01-22T23:34:03.507Z,25.97
2023-01-22T23:36:32.702Z,24.43
2023-01-22T23:39:00.548Z,19.77
2023-01-22T23:41:28.731Z,23.47
2023-01-22T23:43:56.680Z,20.50
2023-01-22T23:46:26.027Z,20.57
2023-01-22T23:48:57.099Z,19.23
2023-01-22T23:51:25.825Z,16.60
2023-01-22T23:53:54.569Z,21.27
2023-01-22T23:56:26.198Z,16.50
2023-01-22T23:58:55.083Z,17.30
